Time;durP1;ratioP1;P1;durP2;ratioP2;P2;SDS_P1;SDS_P2;PMS_P1;PMS_P2;Temp;Humidity;BMP_temperature;BMP_pressure;BME280_temperature;BME280_humidity;BME280_pressure;Samples;Min_cycle;Max_cycle;Signal;HPM_P1;HPM_P2
2021/09/03 00:02:02;;;;;;;11.10;9.07;;;;;;;16.64;63.56;97165.66;4973184;28;20186;-69
2021/09/03 00:04:28;;;;;;;14.40;9.23;;;;;;;16.52;64.02;97159.25;4973852;28;20194;-69
2021/09/03 00:06:53;;;;;;;13.40;9.50;;;;;;;16.52;64.15;97160.09;4973182;28;20461;-69
2021/09/03 00:09:19;;;;;;;12.27;10.27;;;;;;;16.49;64.21;97154.34;4974471;28;20731;-69
2021/09/03 00:11:44;;;;;;;14.53;10.20;;;;;;;16.46;64.22;97160.03;4973357;28;20221;-69
2021/09/03 00:14:10;;;;;;;12.13;9.33;;;;;;;16.46;63.93;97154.72;4973715;28;20703;-69
2021/09/03 00:16:37;;;;;;;13.33;9.50;;;;;;;16.35;64.03;97143.66;4974255;28;20236;-69
2021/09/03 00:19:05;;;;;;;12.93;10.10;;;;;;;16.26;64.64;97148.28;4968372;28;20210;-69
2021/09/03 00:21:31;;;;;;;11.30;9.00;;;;;;;16.13;65.18;97145.50;4974604;28;20946;-69
2021/09/03 00:23:57;;;;;;;13.53;9.27;;;;;;;16.03;65.79;97147.66;4974911;28;20492;-69
2021/09/03 00:26:22;;;;;;;10.80;9.10;;;;;;;16.04;65.58;97142.16;4974619;28;20433;-69
2021/09/03 00:28:48;;;;;;;10.30;8.83;;;;;;;16.11;65.15;97143.06;4973671;28;20210;-69
2021/09/03 00:31:13;;;;;;;11.53;9.10;;;;;;;15.88;65.99;97131.84;4962541;28;20202;-69
2021/09/03 00:33:39;;;;;;;9.83;8.60;;;;;;;15.78;66.49;97138.22;4974604;28;20193;-69
2021/09/03 00:36:04;;;;;;;12.53;8.43;;;;;;;15.79;66.19;97136.41;4973943;28;20205;-70
2021/09/03 00:38:30;;;;;;;11.93;8.47;;;;;;;15.65;67.15;97138.91;4973914;28;20209;-69
2021/09/03 00:40:56;;;;;;;11.77;8.50;;;;;;;15.88;66.05;97137.13;4973757;28;20196;-69
2021/09/03 00:43:22;;;;;;;8.97;7.90;;;;;;;16.00;65.41;97130.34;4974265;28;20193;-69
2021/09/03 00:45:47;;;;;;;9.80;8.00;;;;;;;15.99;65.46;97131.34;4973901;28;20190;-69
2021/09/03 00:48:13;;;;;;;11.70;8.60;;;;;;;16.02;65.31;97130.94;4972561;28;20241;-69
2021/09/03 00:50:40;;;;;;;9.93;8.40;;;;;;;15.80;66.04;97123.00;4973620;28;20189;-69
2021/09/03 00:53:05;;;;;;;15.90;9.87;;;;;;;15.75;66.38;97128.00;4972528;28;20182;-69
2021/09/03 00:55:31;;;;;;;13.77;8.27;;;;;;;15.77;66.40;97126.00;4973694;28;20986;-69
2021/09/03 00:57:57;;;;;;;11.90;8.87;;;;;;;15.79;66.15;97117.91;4973686;28;20351;-69
2021/09/03 01:00:22;;;;;;;10.57;9.07;;;;;;;15.82;65.67;97118.34;4960903;28;20189;-69
2021/09/03 01:02:48;;;;;;;10.57;8.37;;;;;;;15.83;65.68;97119.16;4973843;28;20185;-69
2021/09/03 01:05:13;;;;;;;12.27;8.53;;;;;;;15.71;65.74;97118.00;4957018;28;20591;-69
2021/09/03 01:07:39;;;;;;;10.50;8.70;;;;;;;15.66;66.12;97123.84;4972671;28;20214;-70
2021/09/03 01:10:06;;;;;;;10.33;8.17;;;;;;;15.59;66.71;97117.69;4973279;28;20198;-68
2021/09/03 01:12:31;;;;;;;9.47;8.30;;;;;;;15.52;67.09;97115.78;4973313;28;20632;-70
2021/09/03 01:14:57;;;;;;;9.90;8.90;;;;;;;15.56;66.55;97116.25;4973199;28;20545;-69
2021/09/03 01:17:22;;;;;;;13.47;9.83;;;;;;;15.68;66.12;97115.75;4973517;28;20186;-69
2021/09/03 01:19:50;;;;;;;9.67;8.30;;;;;;;15.62;65.80;97112.03;4967365;28;20599;-69
2021/09/03 01:22:21;;;;;;;10.47;8.50;;;;;;;15.61;65.65;97110.41;4956656;28;20196;-69
2021/09/03 01:24:47;;;;;;;12.47;8.20;;;;;;;15.62;65.53;97112.84;4972677;28;20429;-69
2021/09/03 01:27:12;;;;;;;9.57;7.90;;;;;;;15.64;65.75;97120.56;4961243;28;20476;-69
2021/09/03 01:29:38;;;;;;;13.23;8.10;;;;;;;15.69;65.70;97122.69;4972731;28;20601;-69
2021/09/03 01:32:04;;;;;;;10.10;8.23;;;;;;;15.71;65.89;97121.47;4972811;28;20194;-69
2021/09/03 01:34:29;;;;;;;13.10;8.53;;;;;;;15.58;66.09;97119.50;4973061;28;20186;-69
2021/09/03 01:36:55;;;;;;;11.60;8.97;;;;;;;15.43;66.57;97121.38;4971082;28;20272;-69
2021/09/03 01:39:20;;;;;;;9.07;7.83;;;;;;;15.40;66.58;97108.53;4966801;28;20228;-69
2021/09/03 01:41:46;;;;;;;9.93;8.37;;;;;;;15.48;66.12;97109.25;4984711;28;20607;-69
2021/09/03 01:44:12;;;;;;;12.07;7.87;;;;;;;15.38;66.03;97102.63;4973909;28;20281;-69
2021/09/03 01:46:37;;;;;;;19.63;12.30;;;;;;;15.36;66.21;97102.81;4973627;28;20202;-69
2021/09/03 01:49:03;;;;;;;128.07;63.97;;;;;;;15.35;66.26;97103.81;4972801;28;20205;-68
2021/09/03 01:51:29;;;;;;;77.40;41.43;;;;;;;15.39;66.13;97102.41;4971594;28;20186;-69
2021/09/03 01:53:54;;;;;;;51.53;29.70;;;;;;;15.38;66.55;97103.41;4971196;28;20189;-69
2021/09/03 01:56:20;;;;;;;35.93;21.70;;;;;;;15.45;66.17;97106.97;4972978;28;20436;-69
2021/09/03 01:58:46;;;;;;;25.53;16.80;;;;;;;15.41;66.08;97100.41;4971310;28;20706;-70
2021/09/03 02:01:12;;;;;;;18.20;13.10;;;;;;;15.34;66.10;97095.06;4971745;28;20193;-69
2021/09/03 02:03:37;;;;;;;18.00;12.03;;;;;;;15.34;65.92;97099.53;4972880;28;20194;-69
2021/09/03 02:06:03;;;;;;;19.37;11.43;;;;;;;15.38;65.75;97097.34;4972600;28;20628;-69
2021/09/03 02:08:30;;;;;;;14.37;10.10;;;;;;;15.33;65.70;97095.25;4963739;28;20217;-69
2021/09/03 02:10:56;;;;;;;13.20;9.67;;;;;;;15.19;66.05;97097.72;4972439;28;20570;-69
2021/09/03 02:13:21;;;;;;;12.10;9.17;;;;;;;15.13;66.50;97090.53;4970993;28;20548;-69
2021/09/03 02:15:48;;;;;;;10.90;9.17;;;;;;;15.04;66.95;97089.00;4972640;28;20244;-69
2021/09/03 02:18:14;;;;;;;12.90;8.97;;;;;;;15.06;66.71;97092.28;4969843;28;20206;-69
2021/09/03 02:20:39;;;;;;;10.47;8.90;;;;;;;15.10;66.49;97085.66;4967706;28;20470;-69
2021/09/03 02:23:05;;;;;;;15.03;9.40;;;;;;;14.93;67.68;97089.47;4972369;28;20193;-69
2021/09/03 02:25:30;;;;;;;11.60;8.60;;;;;;;14.93;67.08;97089.47;4972284;28;20181;-68
2021/09/03 02:27:56;;;;;;;11.13;8.60;;;;;;;14.99;67.61;97086.91;4972091;28;20214;-68
2021/09/03 02:30:22;;;;;;;13.40;8.80;;;;;;;14.95;67.53;97077.72;4972090;28;20201;-70
2021/09/03 02:32:47;;;;;;;10.67;8.57;;;;;;;15.12;67.04;97088.09;4970861;28;20221;-69
2021/09/03 02:35:13;;;;;;;10.40;8.97;;;;;;;15.09;66.86;97084.00;4972333;28;20191;-69
2021/09/03 02:37:38;;;;;;;10.77;8.30;;;;;;;15.15;66.51;97080.63;4965997;28;20186;-69
2021/09/03 02:40:05;;;;;;;12.57;8.97;;;;;;;15.02;66.76;97080.44;4969868;28;20194;-70
2021/09/03 02:42:30;;;;;;;572.60;182.07;;;;;;;14.99;66.73;97075.56;4972144;28;20256;-70
2021/09/03 02:44:56;;;;;;;99.90;32.57;;;;;;;15.05;66.61;97069.53;4972004;28;20432;-69
2021/09/03 02:47:21;;;;;;;32.00;15.73;;;;;;;15.08;66.47;97069.16;4972044;28;20217;-70
2021/09/03 02:49:47;;;;;;;25.77;12.23;;;;;;;15.10;66.17;97072.44;4971974;28;20584;-70
2021/09/03 02:52:13;;;;;;;13.70;9.70;;;;;;;15.08;66.14;97073.63;4972003;28;20237;-69
2021/09/03 02:54:38;;;;;;;9.97;8.03;;;;;;;15.02;66.36;97061.97;4971687;28;20244;-69
2021/09/03 02:57:04;;;;;;;12.47;8.70;;;;;;;15.00;66.78;97061.34;4971252;28;20177;-69
2021/09/03 02:59:29;;;;;;;14.50;8.70;;;;;;;14.89;66.92;97060.81;4971151;28;20680;-69
2021/09/03 03:01:55;;;;;;;13.97;9.33;;;;;;;14.86;67.35;97055.09;4970839;28;20182;-69
2021/09/03 03:04:20;;;;;;;13.50;8.80;;;;;;;14.76;67.09;97057.19;4961818;28;20189;-70
2021/09/03 03:06:46;;;;;;;17.23;10.37;;;;;;;14.68;67.76;97047.53;4972168;28;20296;-69
2021/09/03 03:09:12;;;;;;;20.20;15.43;;;;;;;14.72;67.43;97049.63;4965278;28;20768;-70
2021/09/03 03:11:37;;;;;;;23.00;16.70;;;;;;;14.78;67.35;97052.56;4972023;28;20252;-70
2021/09/03 03:14:14;;;;;;;28.63;14.70;;;;;;;14.80;67.29;97056.63;4971170;28;20197;-69
2021/09/03 03:16:40;;;;;;;16.77;11.97;;;;;;;14.84;66.96;97052.66;4972100;28;20271;-70
2021/09/03 03:19:05;;;;;;;15.57;10.53;;;;;;;14.70;67.22;97046.34;4966508;28;20532;-68
2021/09/03 03:21:31;;;;;;;13.10;9.73;;;;;;;14.50;68.54;97058.44;4975517;28;20192;-69
2021/09/03 03:23:57;;;;;;;12.43;9.30;;;;;;;14.57;68.13;97041.69;4975166;28;20189;-69
2021/09/03 03:26:22;;;;;;;11.63;8.97;;;;;;;14.55;68.21;97048.16;4975740;28;20221;-69
2021/09/03 03:28:48;;;;;;;12.60;9.77;;;;;;;14.64;67.90;97046.22;4975223;28;20212;-70
2021/09/03 03:31:14;;;;;;;12.67;8.80;;;;;;;14.66;67.80;97038.97;4974752;28;20260;-69
2021/09/03 03:33:39;;;;;;;12.20;9.20;;;;;;;14.59;68.10;97039.69;4974791;28;20273;-70
2021/09/03 03:36:05;;;;;;;13.43;9.80;;;;;;;14.71;67.82;97036.63;4974584;28;20593;-69
2021/09/03 03:38:31;;;;;;;11.77;9.20;;;;;;;14.79;67.51;97041.81;4967988;28;20202;-69
2021/09/03 03:40:56;;;;;;;12.97;9.30;;;;;;;14.75;67.22;97043.16;4975051;28;20559;-69
2021/09/03 03:43:22;;;;;;;12.63;10.00;;;;;;;14.49;67.83;97044.41;4975073;28;20193;-69
2021/09/03 03:45:48;;;;;;;12.73;8.40;;;;;;;14.35;68.48;97039.97;4968659;28;20203;-69
2021/09/03 03:48:13;;;;;;;19.63;9.87;;;;;;;14.33;68.51;97034.06;4963902;28;20214;-70
2021/09/03 03:50:39;;;;;;;12.37;9.63;;;;;;;14.34;68.50;97025.94;4974959;28;20182;-69
2021/09/03 03:53:04;;;;;;;15.03;9.63;;;;;;;14.41;68.19;97042.69;4973788;28;20192;-68
2021/09/03 03:55:30;;;;;;;13.07;9.67;;;;;;;14.56;67.66;97036.59;4975129;28;20228;-70
2021/09/03 03:57:55;;;;;;;10.60;9.50;;;;;;;14.58;67.53;97030.16;4973392;28;20221;-68
2021/09/03 04:00:21;;;;;;;13.73;9.23;;;;;;;14.58;67.72;97030.16;4974120;28;20193;-70
2021/09/03 04:02:47;;;;;;;14.03;10.70;;;;;;;14.62;67.86;97037.72;4975644;28;20186;-69
2021/09/03 04:05:12;;;;;;;22.30;12.03;;;;;;;14.67;68.50;97041.47;4975685;28;20727;-69
2021/09/03 04:07:38;;;;;;;12.50;9.60;;;;;;;14.75;67.78;97037.88;4975144;28;20647;-69
2021/09/03 04:10:04;;;;;;;13.57;9.83;;;;;;;14.61;66.93;97041.34;4974286;28;20181;-69
2021/09/03 04:12:30;;;;;;;17.13;10.50;;;;;;;14.56;67.03;97040.06;4974776;28;20178;-69
2021/09/03 04:14:55;;;;;;;14.33;10.47;;;;;;;14.42;67.36;97031.16;4974612;28;20457;-69
2021/09/03 04:17:21;;;;;;;13.20;9.30;;;;;;;14.50;67.29;97030.22;4968229;28;20688;-69
2021/09/03 04:19:46;;;;;;;12.03;9.90;;;;;;;14.39;67.26;97035.94;4968344;28;20206;-69
2021/09/03 04:22:12;;;;;;;12.13;10.60;;;;;;;14.46;67.30;97028.97;4974425;28;20188;-69
2021/09/03 04:24:38;;;;;;;13.07;9.37;;;;;;;14.49;66.82;97028.59;4974620;28;20569;-69
2021/09/03 04:27:03;;;;;;;13.00;10.30;;;;;;;14.46;67.45;97022.88;4974020;28;20197;-69
2021/09/03 04:29:29;;;;;;;13.90;10.60;;;;;;;14.50;67.35;97035.50;4973138;28;20244;-69
2021/09/03 04:31:55;;;;;;;13.67;9.77;;;;;;;14.43;67.22;97043.31;4972290;28;20180;-69
2021/09/03 04:34:21;;;;;;;13.20;9.70;;;;;;;14.32;67.50;97048.22;4973380;28;20295;-70
2021/09/03 04:36:46;;;;;;;17.07;9.93;;;;;;;14.23;67.53;97045.69;4974041;28;20524;-69
2021/09/03 04:39:12;;;;;;;14.47;9.47;;;;;;;14.31;67.47;97049.22;4973346;28;20203;-69
2021/09/03 04:41:37;;;;;;;14.70;9.90;;;;;;;14.42;66.95;97048.78;4973759;28;20476;-69
2021/09/03 04:44:03;;;;;;;14.40;10.37;;;;;;;14.30;67.06;97053.69;4973611;28;20232;-69
2021/09/03 04:46:29;;;;;;;18.53;11.70;;;;;;;14.36;67.30;97052.16;4972498;28;20177;-69
2021/09/03 04:48:54;;;;;;;12.70;10.03;;;;;;;14.24;67.96;97051.75;4970084;28;20242;-69
2021/09/03 04:51:20;;;;;;;15.80;10.63;;;;;;;14.36;67.42;97060.84;4972375;28;20177;-69
2021/09/03 04:53:45;;;;;;;13.10;9.80;;;;;;;14.38;67.30;97065.94;4973470;28;20655;-69
2021/09/03 04:56:11;;;;;;;16.13;9.77;;;;;;;14.31;67.34;97063.22;4972093;28;20272;-69
2021/09/03 04:58:37;;;;;;;13.30;10.00;;;;;;;14.35;67.21;97063.69;4973596;28;20209;-69
2021/09/03 05:01:02;;;;;;;13.67;10.20;;;;;;;14.38;67.42;97058.03;4973520;28;20220;-69
2021/09/03 05:03:28;;;;;;;16.80;10.37;;;;;;;14.26;67.28;97061.09;4973508;28;20196;-69
2021/09/03 05:05:53;;;;;;;15.50;9.97;;;;;;;14.32;67.60;97064.03;4963795;28;20228;-68
2021/09/03 05:08:19;;;;;;;13.80;9.40;;;;;;;14.39;67.34;97059.69;4972229;28;20293;-70
2021/09/03 05:10:44;;;;;;;13.90;10.37;;;;;;;14.35;67.32;97053.16;4972671;28;20586;-69
2021/09/03 05:13:10;;;;;;;14.57;10.40;;;;;;;14.43;67.25;97053.84;4972701;28;20185;-69
2021/09/03 05:15:41;;;;;;;14.07;9.87;;;;;;;14.51;66.81;97062.69;4973272;28;20188;-69
2021/09/03 05:18:07;;;;;;;13.43;10.20;;;;;;;14.57;66.92;97049.63;4967073;28;20208;-68
2021/09/03 05:20:32;;;;;;;16.70;9.83;;;;;;;14.65;66.82;97048.69;4967017;28;20425;-69
2021/09/03 05:22:58;;;;;;;13.57;9.93;;;;;;;14.70;66.71;97046.34;4973416;28;20567;-69
2021/09/03 05:25:24;;;;;;;17.60;11.50;;;;;;;14.71;66.74;97044.56;4973673;28;20308;-68
2021/09/03 05:27:50;;;;;;;15.20;11.57;;;;;;;14.83;66.64;97048.38;4972059;28;20209;-70
2021/09/03 05:30:16;;;;;;;14.37;10.27;;;;;;;14.99;66.48;97049.19;4971489;28;20448;-69
2021/09/03 05:32:42;;;;;;;13.60;10.00;;;;;;;15.08;66.22;97053.34;4973382;28;20451;-69
2021/09/03 05:35:08;;;;;;;13.33;10.77;;;;;;;15.20;66.10;97057.13;4972901;28;20186;-69
2021/09/03 05:37:35;;;;;;;18.10;10.70;;;;;;;15.36;65.96;97058.72;4971478;28;20417;-69
2021/09/03 05:40:01;;;;;;;19.70;10.13;;;;;;;15.47;65.34;97064.53;4973034;28;20817;-69
2021/09/03 05:42:28;;;;;;;16.30;10.07;;;;;;;15.53;64.88;97063.78;4972974;28;20488;-69
2021/09/03 05:44:53;;;;;;;11.93;9.80;;;;;;;15.62;64.61;97056.56;4972568;28;20788;-69
2021/09/03 05:47:19;;;;;;;13.67;10.20;;;;;;;15.66;64.78;97061.28;4964473;28;20453;-69
2021/09/03 05:49:45;;;;;;;16.00;9.90;;;;;;;15.59;64.46;97059.59;4972194;28;20680;-69
2021/09/03 05:52:10;;;;;;;13.37;10.27;;;;;;;15.62;64.36;97057.38;4972825;28;20188;-68
2021/09/03 05:54:36;;;;;;;14.60;8.87;;;;;;;15.75;64.09;97055.88;4973294;28;20177;-69
2021/09/03 05:57:04;;;;;;;17.70;10.17;;;;;;;15.94;63.83;97057.09;4965003;28;20186;-69
2021/09/03 05:59:29;;;;;;;13.97;10.00;;;;;;;16.17;63.56;97054.22;4973035;28;20205;-69
2021/09/03 06:01:55;;;;;;;11.97;10.07;;;;;;;16.43;63.18;97058.88;4972822;28;20476;-70
2021/09/03 06:04:21;;;;;;;17.53;10.83;;;;;;;16.63;62.92;97054.72;4972564;28;20644;-68
2021/09/03 06:06:46;;;;;;;13.43;10.13;;;;;;;16.76;62.48;97051.38;4972304;28;20221;-70
2021/09/03 06:09:12;;;;;;;15.07;10.30;;;;;;;16.98;62.10;97050.28;4967862;28;20709;-70
2021/09/03 06:11:37;;;;;;;15.77;10.10;;;;;;;17.19;62.00;97045.88;4973843;28;20181;-70
2021/09/03 06:14:03;;;;;;;15.70;10.70;;;;;;;17.94;60.76;97045.81;4973019;28;20214;-69
2021/09/03 06:16:29;;;;;;;12.40;10.00;;;;;;;18.92;57.80;97046.13;4965849;28;20186;-69
2021/09/03 06:18:54;;;;;;;12.90;9.57;;;;;;;20.18;54.90;97048.31;4962845;28;20861;-68
2021/09/03 06:21:20;;;;;;;13.97;9.57;;;;;;;20.93;50.82;97041.22;4973098;28;20580;-70
2021/09/03 06:23:46;;;;;;;14.43;8.97;;;;;;;21.00;49.61;97039.31;4973030;28;20173;-69
2021/09/03 06:26:11;;;;;;;11.03;9.57;;;;;;;20.63;49.77;97043.78;4971748;28;20189;-70
2021/09/03 06:28:37;;;;;;;11.27;8.80;;;;;;;20.08;51.19;97056.75;4951505;28;20213;-69
2021/09/03 06:31:03;;;;;;;11.43;9.20;;;;;;;19.53;53.51;97053.84;4971796;28;20576;-69
2021/09/03 06:33:29;;;;;;;13.40;10.30;;;;;;;19.24;54.43;97054.19;4972331;28;20186;-70
2021/09/03 06:35:54;;;;;;;12.43;9.60;;;;;;;18.91;54.98;97056.94;4972215;28;20189;-69
2021/09/03 06:38:20;;;;;;;15.47;9.50;;;;;;;18.58;55.89;97050.72;4986881;28;20194;-70
2021/09/03 06:40:45;;;;;;;18.87;9.83;;;;;;;18.21;57.60;97053.81;4964398;28;20281;-69
2021/09/03 06:43:11;;;;;;;13.60;10.10;;;;;;;18.20;57.54;97052.16;4971381;28;20193;-69
2021/09/03 06:45:36;;;;;;;13.77;10.20;;;;;;;18.84;56.61;97052.47;4971865;28;20182;-69
2021/09/03 06:48:02;;;;;;;12.40;9.63;;;;;;;19.25;55.52;97049.69;4970603;28;20213;-69
2021/09/03 06:50:28;;;;;;;13.13;10.43;;;;;;;19.31;55.33;97054.97;4966858;28;20261;-69
2021/09/03 06:52:54;;;;;;;15.07;10.60;;;;;;;19.38;54.73;97054.13;4952122;28;20640;-69
2021/09/03 06:55:19;;;;;;;16.37;9.93;;;;;;;19.51;54.35;97055.91;4976225;28;20188;-68
2021/09/03 06:57:45;;;;;;;14.73;10.37;;;;;;;19.71;53.55;97053.13;4973434;28;20173;-69
2021/09/03 07:00:11;;;;;;;11.53;9.43;;;;;;;19.80;53.11;97054.50;4975250;28;20700;-68
2021/09/03 07:02:37;;;;;;;11.03;9.00;;;;;;;19.84;53.48;97054.88;4969611;28;20545;-70
2021/09/03 07:05:03;;;;;;;16.23;10.47;;;;;;;19.97;53.14;97059.31;4975405;28;20425;-70
2021/09/03 07:07:29;;;;;;;13.37;9.60;;;;;;;20.19;52.56;97060.56;4974891;28;20459;-69
2021/09/03 07:09:55;;;;;;;17.33;10.40;;;;;;;20.18;52.78;97063.44;4975739;28;20445;-69
2021/09/03 07:12:21;;;;;;;12.10;9.30;;;;;;;20.38;52.11;97064.09;4975775;28;20182;-69
2021/09/03 07:14:47;;;;;;;11.73;9.57;;;;;;;20.44;51.72;97057.06;4974202;28;20444;-69
2021/09/03 07:17:12;;;;;;;20.83;10.27;;;;;;;20.48;51.53;97060.09;4975017;28;20482;-69
2021/09/03 07:19:38;;;;;;;11.63;10.23;;;;;;;20.45;51.37;97065.88;4968170;28;20680;-69
2021/09/03 07:22:05;;;;;;;17.80;10.73;;;;;;;20.59;51.50;97064.72;4973595;28;20185;-69
2021/09/03 07:24:31;;;;;;;13.40;9.70;;;;;;;20.65;51.74;97063.84;4974724;28;20185;-69
2021/09/03 07:26:57;;;;;;;15.10;10.37;;;;;;;20.70;51.05;97063.97;4968989;28;21096;-69
2021/09/03 07:29:22;;;;;;;19.23;9.37;;;;;;;20.71;51.72;97062.94;4967146;28;20221;-68
2021/09/03 07:31:48;;;;;;;14.53;9.40;;;;;;;20.85;51.50;97060.19;4971282;28;20480;-69
2021/09/03 07:34:14;;;;;;;17.40;10.60;;;;;;;20.81;51.54;97062.47;4967350;28;20201;-70
2021/09/03 07:36:39;;;;;;;14.50;9.50;;;;;;;21.00;50.83;97065.94;4958691;28;20218;-69
2021/09/03 07:39:05;;;;;;;18.53;9.80;;;;;;;21.20;50.32;97062.22;4972985;28;20280;-70
2021/09/03 07:41:31;;;;;;;14.00;9.27;;;;;;;21.43;49.65;97060.69;4959057;28;20198;-69
2021/09/03 07:43:56;;;;;;;21.50;10.23;;;;;;;21.49;49.31;97059.81;4972051;28;20209;-69
2021/09/03 07:46:22;;;;;;;18.00;9.90;;;;;;;21.50;48.90;97058.78;4957120;28;20673;-68
2021/09/03 07:48:47;;;;;;;12.07;9.20;;;;;;;21.60;48.39;97059.06;4963165;28;20210;-69
2021/09/03 07:51:13;;;;;;;11.27;9.10;;;;;;;21.53;49.02;97047.66;4968340;28;20773;-69
2021/09/03 07:53:39;;;;;;;17.20;9.60;;;;;;;21.57;48.54;97045.34;4974386;28;20196;-68
2021/09/03 07:56:05;;;;;;;14.63;9.37;;;;;;;21.74;47.97;97040.22;4974201;28;20196;-69
2021/09/03 07:58:31;;;;;;;11.03;9.47;;;;;;;21.92;48.09;97044.66;4963638;28;20289;-68
2021/09/03 08:00:56;;;;;;;13.27;9.40;;;;;;;22.12;47.17;97044.34;4974668;28;20190;-68
2021/09/03 08:03:22;;;;;;;17.80;10.70;;;;;;;22.13;47.48;97039.81;4971420;28;20424;-69
2021/09/03 08:05:47;;;;;;;15.27;9.60;;;;;;;21.71;48.49;97038.00;4969653;28;20656;-69
2021/09/03 08:08:13;;;;;;;18.47;9.33;;;;;;;22.09;47.44;97045.63;4988714;28;20944;-68
2021/09/03 08:10:39;;;;;;;15.93;9.53;;;;;;;22.37;46.80;97048.66;4974312;28;20190;-69
2021/09/03 08:13:06;;;;;;;12.57;9.00;;;;;;;22.23;46.65;97040.88;4966148;28;20189;-68
2021/09/03 08:15:32;;;;;;;13.13;9.33;;;;;;;22.20;46.91;97049.31;4973889;28;20185;-69
2021/09/03 08:17:58;;;;;;;11.40;8.93;;;;;;;22.14;47.05;97038.75;4952358;28;20458;-69
2021/09/03 08:20:24;;;;;;;9.43;8.10;;;;;;;22.50;46.11;97044.94;4952592;28;20795;-69
2021/09/03 08:22:51;;;;;;;14.77;8.70;;;;;;;22.63;45.92;97043.91;4950016;28;20187;-68
2021/09/03 08:25:18;;;;;;;11.63;8.80;;;;;;;22.33;46.30;97053.63;4952825;28;20802;-69
2021/09/03 08:27:45;;;;;;;13.37;8.73;;;;;;;22.73;45.23;97052.13;4949173;28;20473;-69
2021/09/03 08:30:10;;;;;;;13.13;8.90;;;;;;;22.68;46.20;97046.69;4952376;28;20504;-68
2021/09/03 08:32:36;;;;;;;10.63;8.60;;;;;;;22.58;46.48;97054.47;4954487;28;20752;-68
2021/09/03 08:35:02;;;;;;;10.30;8.00;;;;;;;22.87;45.57;97055.38;4951489;28;20218;-68
2021/09/03 08:37:27;;;;;;;14.53;8.40;;;;;;;22.94;45.19;97058.72;4950027;28;20178;-69
2021/09/03 08:39:54;;;;;;;10.27;8.80;;;;;;;23.30;43.75;97064.00;4950109;28;20203;-68
2021/09/03 08:42:21;;;;;;;14.30;9.10;;;;;;;23.38;44.08;97049.44;4951771;28;20178;-68
2021/09/03 08:44:47;;;;;;;15.40;10.40;;;;;;;23.32;44.13;97053.88;4949636;28;20521;-69
2021/09/03 08:47:14;;;;;;;10.33;7.60;;;;;;;22.49;45.95;97052.16;4952606;28;20530;-69
2021/09/03 08:49:41;;;;;;;10.83;7.83;;;;;;;23.17;44.48;97063.22;4948950;28;20450;-69
2021/09/03 08:52:07;;;;;;;11.57;8.07;;;;;;;23.05;44.84;97062.44;4951475;28;20488;-68
2021/09/03 08:54:32;;;;;;;10.60;7.67;;;;;;;23.14;44.26;97061.00;4954191;28;21155;-69
2021/09/03 08:56:58;;;;;;;12.03;7.97;;;;;;;23.15;44.04;97056.47;4971115;28;20186;-69
2021/09/03 08:59:23;;;;;;;11.10;7.90;;;;;;;23.09;44.53;97052.88;4973006;28;20208;-69
2021/09/03 09:02:09;;;;;;;9.07;7.43;;;;;;;23.03;44.41;97056.50;4967656;28;20191;-69
2021/09/03 09:04:39;;;;;;;10.47;8.63;;;;;;;22.38;45.28;97064.41;4983202;28;20205;-69
2021/09/03 09:07:05;;;;;;;16.40;9.83;;;;;;;23.19;43.75;97056.81;4969430;28;20541;-69
2021/09/03 09:09:36;;;;;;;10.17;8.00;;;;;;;23.65;43.29;97055.03;4970525;28;20468;-68
2021/09/03 09:12:07;;;;;;;10.23;7.97;;;;;;;23.34;43.73;97062.47;4970581;28;20426;-67
2021/09/03 09:15:03;;;;;;;8.43;7.30;;;;;;;23.54;43.56;97058.56;4947243;28;20433;-68
2021/09/03 09:17:35;;;;;;;10.10;7.00;;;;;;;23.98;42.61;97058.81;4948316;28;20521;-67
2021/09/03 09:20:02;;;;;;;9.70;8.37;;;;;;;23.95;42.82;97064.63;4950897;28;20469;-68
2021/09/03 09:22:27;;;;;;;11.00;7.83;;;;;;;23.81;42.79;97058.78;4966208;28;20508;-69
2021/09/03 09:25:17;;;;;;;11.70;7.87;;;;;;;24.02;42.00;97054.63;4973417;28;20457;-68
2021/09/03 09:27:43;;;;;;;9.77;7.20;;;;;;;24.13;41.06;97052.09;4970601;28;20220;-68
2021/09/03 09:30:26;;;;;;;8.30;7.27;;;;;;;24.15;41.83;97052.66;4971772;28;20520;-68
2021/09/03 09:33:15;;;;;;;9.33;7.90;;;;;;;24.14;42.35;97046.50;4966725;28;20421;-68
2021/09/03 09:35:43;;;;;;;14.03;8.90;;;;;;;24.43;41.65;97050.94;4948504;29;20940;-68
2021/09/03 09:38:09;;;;;;;10.67;8.90;;;;;;;24.31;42.31;97045.69;4964872;28;20453;-69
2021/09/03 09:40:55;;;;;;;10.27;7.87;;;;;;;23.99;42.81;97047.06;4971892;28;20432;-68
2021/09/03 09:43:41;;;;;;;11.17;8.40;;;;;;;24.42;41.69;97041.28;4950382;28;20186;-68
2021/09/03 09:46:06;;;;;;;11.00;8.40;;;;;;;24.46;41.81;97037.88;4951662;28;20845;-69
2021/09/03 09:48:32;;;;;;;12.40;8.30;;;;;;;24.66;41.56;97037.34;4966680;28;20592;-68
2021/09/03 09:50:58;;;;;;;14.10;8.23;;;;;;;24.18;42.53;97034.25;4971730;28;20252;-69
2021/09/03 09:53:25;;;;;;;13.50;8.43;;;;;;;24.74;42.20;97027.28;4972473;28;20520;-69
2021/09/03 09:55:51;;;;;;;9.20;7.53;;;;;;;24.73;41.04;97026.50;4969065;28;20177;-68
2021/09/03 09:58:19;;;;;;;11.43;7.97;;;;;;;24.54;42.01;97028.63;4969554;28;20463;-68
2021/09/03 10:00:45;;;;;;;9.07;8.00;;;;;;;24.69;41.42;97028.84;4971103;28;20186;-69
2021/09/03 10:03:11;;;;;;;8.70;7.70;;;;;;;24.98;40.94;97034.03;4971062;28;20524;-68
2021/09/03 10:05:37;;;;;;;8.80;7.90;;;;;;;25.12;40.75;97028.28;4971163;28;20437;-68
2021/09/03 10:08:04;;;;;;;8.80;7.40;;;;;;;24.73;41.85;97022.97;4972522;28;20461;-68
2021/09/03 10:10:30;;;;;;;12.03;8.13;;;;;;;24.66;42.12;97023.97;4971453;28;20293;-68
2021/09/03 10:12:55;;;;;;;8.53;7.70;;;;;;;24.35;42.89;97018.16;4957392;28;20449;-67
2021/09/03 10:15:21;;;;;;;15.57;7.47;;;;;;;24.61;42.74;97018.53;4972286;28;20280;-67
2021/09/03 10:17:47;;;;;;;9.77;8.10;;;;;;;24.69;41.82;97015.47;4972417;28;20189;-67
2021/09/03 10:20:13;;;;;;;8.37;7.47;;;;;;;25.08;42.04;97013.75;4965088;28;20185;-67
2021/09/03 10:22:43;;;;;;;10.53;8.37;;;;;;;24.75;42.67;97013.66;4955035;28;20668;-68
2021/09/03 10:25:10;;;;;;;10.57;8.40;;;;;;;25.19;41.51;97010.16;4966623;28;20445;-68
2021/09/03 10:27:36;;;;;;;9.63;7.87;;;;;;;25.21;41.89;97013.38;4958496;28;20517;-67
2021/09/03 10:30:22;;;;;;;13.40;7.47;;;;;;;25.54;41.36;97014.28;4959023;28;20541;-65
2021/09/03 10:32:47;;;;;;;12.23;7.87;;;;;;;25.70;40.94;97012.56;4972955;28;20252;-69
2021/09/03 10:35:16;;;;;;;11.40;8.73;;;;;;;25.11;nan;97008.72;4958947;28;20947;-68
2021/09/03 10:37:42;;;;;;;8.57;7.47;;;;;;;25.11;42.10;97011.41;4967014;28;20195;-67
2021/09/03 10:40:13;;;;;;;12.40;8.00;;;;;;;24.71;42.69;97007.16;4976267;28;20421;-67
2021/09/03 10:45:14;;;;;;;10.40;7.80;;;;;;;25.53;41.58;96998.44;4976995;28;20524;-67
2021/09/03 10:47:45;;;;;;;12.90;7.43;;;;;;;25.60;41.83;97002.53;4976642;28;20445;-68
2021/09/03 10:50:20;;;;;;;10.07;7.57;;;;;;;25.72;41.38;96997.00;4976715;28;20747;-68
2021/09/03 10:53:06;;;;;;;9.23;7.13;;;;;;;26.18;39.75;97001.13;4969348;28;20777;-68
2021/09/03 10:56:13;;;;;;;8.73;7.73;;;;;;;26.29;40.06;96997.44;4962841;28;20507;-68
2021/09/03 10:58:43;;;;;;;11.50;7.90;;;;;;;26.20;40.18;96999.81;4975337;28;20452;-68
2021/09/03 11:01:14;;;;;;;12.30;8.13;;;;;;;26.48;39.37;96997.81;4973506;28;20808;-68
2021/09/03 11:03:41;;;;;;;9.17;8.23;;;;;;;26.59;38.77;96996.00;4972876;28;20428;-67
2021/09/03 11:06:07;;;;;;;12.90;8.23;;;;;;;26.36;39.46;96992.66;4969236;28;20440;-68
2021/09/03 11:08:45;;;;;;;11.00;7.30;;;;;;;26.79;39.16;96989.94;4976883;28;20552;-68
2021/09/03 11:11:24;;;;;;;18.03;7.77;;;;;;;26.30;40.04;96985.63;4977227;28;20428;-68
2021/09/03 11:13:52;;;;;;;15.83;6.83;;;;;;;27.14;38.61;96982.28;4977696;28;20424;-68
2021/09/03 11:16:37;;;;;;;8.47;7.57;;;;;;;27.37;38.54;96978.28;4975885;28;20916;-68
2021/09/03 11:19:10;;;;;;;13.13;6.93;;;;;;;27.58;38.31;96973.75;4968709;28;20520;-68
2021/09/03 11:21:41;;;;;;;10.23;7.80;;;;;;;27.44;38.29;96970.78;4960969;28;20627;-68
2021/09/03 11:24:07;;;;;;;11.47;8.27;;;;;;;27.37;38.28;96972.88;4968418;28;20470;-68
2021/09/03 11:26:35;;;;;;;8.53;7.00;;;;;;;27.45;37.79;96968.91;4965568;28;20425;-68